Weather reports worldwide

Advertisment
Cadiz, Spain (8452): temperature & dewpoint: 05.12.2019 10:00:00 - 11.12.2019 10:00:00 (CET)Cadiz, Spain (8452): wind speed & gusts: 05.12.2019 10:00:00 - 11.12.2019 10:00:00 (CET)Cadiz, Spain (8452): wind direction: 05.12.2019 10:00:00 - 11.12.2019 10:00:00 (CET)Cadiz, Spain (8452): reduced air pressure: 05.12.2019 10:00:00 - 11.12.2019 10:00:00 (CET)Cadiz, Spain (8452): precipitation: 05.12.2019 10:00:00 - 11.12.2019 10:00:00 (CET)
Date & Time tt [°C] td [°C] ff [km/h] ff [kn] fx [km/h] fx [kn] dd ppp [hPa] rr [mm]
11.12.2019 10:00:00 - - - - - - - - -
11.12.2019 09:00:00 13,3 11,3 9 5 14 8 NW 1027,1 0,0
11.12.2019 08:00:00 11,6 10,5 0 0 8 5 W 1026,6 0,0
11.12.2019 07:00:00 12,2 10,6 3 2 9 5 E 1026,0 -
11.12.2019 06:00:00 12,3 11,6 0 0 7 4 N 1025,9 0,0
11.12.2019 05:00:00 12,4 11,7 4 2 7 4 SE 1025,8 0,0
11.12.2019 04:00:00 12,9 12,0 4 2 7 4 S 1025,9 0,0
11.12.2019 03:00:00 13,2 12,2 5 3 8 5 S 1026,0 0,0
11.12.2019 02:00:00 13,9 12,4 1 1 8 4 WSW 1026,3 0,0
11.12.2019 01:00:00 14,7 12,7 6 3 11 6 WNW 1026,7 -
11.12.2019 00:00:00 14,3 12,3 4 2 8 5 WNW 1026,8 0,0
10.12.2019 23:00:00 13,8 11,3 4 2 11 6 W 1026,7 0,0
10.12.2019 22:00:00 14,2 11,6 6 3 11 6 W 1026,7 0,0
10.12.2019 21:00:00 14,8 11,2 7 4 13 7 WNW 1026,9 0,0
10.12.2019 20:00:00 14,7 10,9 6 3 15 8 WNW 1026,9 0,0
10.12.2019 19:00:00 15,0 11,6 11 6 17 9 NNW 1026,5 -
10.12.2019 18:00:00 15,3 11,9 8 4 14 7 WNW 1026,4 0,0
10.12.2019 17:00:00 16,9 12,2 7 4 10 5 W 1026,3 0,0
10.12.2019 16:00:00 16,7 10,3 2 1 9 5 NNW 1026,4 0,0
10.12.2019 15:00:00 16,3 10,8 3 2 9 5 WSW 1026,8 0,0
10.12.2019 14:00:00 15,1 10,5 3 2 7 4 ESE 1027,7 0,0
10.12.2019 13:00:00 13,2 9,7 4 2 10 5 N 1028,5 -
10.12.2019 12:00:00 12,3 9,7 4 2 9 5 NNE 1029,0 0,0
10.12.2019 11:00:00 11,2 9,2 5 3 11 6 NNE 1028,8 0,0
10.12.2019 10:00:00 10,6 9,2 7 4 10 5 NNE 1028,4 0,0
10.12.2019 09:00:00 10,6 9,0 7 4 23 13 NNE 1027,9 0,0
10.12.2019 08:00:00 11,0 9,6 7 4 16 8 N 1027,9 0,0
10.12.2019 07:00:00 11,6 10,0 14 7 20 11 N 1027,5 -
10.12.2019 06:00:00 12,4 11,0 16 9 21 11 NNW 1027,7 0,0
10.12.2019 05:00:00 13,1 11,3 13 7 19 10 NNW 1027,9 0,0
10.12.2019 04:00:00 13,7 11,8 15 8 20 11 N 1028,5 0,0
10.12.2019 03:00:00 13,7 11,8 11 6 16 9 NNW 1028,6 0,0
10.12.2019 02:00:00 14,5 12,5 12 7 16 9 NNW 1028,5 0,0
10.12.2019 01:00:00 14,6 12,6 11 6 13 7 N 1029,1 -
10.12.2019 00:00:00 14,9 12,0 9 5 19 10 NW 1028,9 0,0
09.12.2019 23:00:00 15,3 12,1 11 6 16 9 NW 1029,1 0,0
09.12.2019 22:00:00 15,1 12,0 9 5 14 7 NW 1029,4 0,0
09.12.2019 21:00:00 15,4 12,7 8 4 11 6 NW 1029,4 0,0
09.12.2019 20:00:00 15,5 13,9 7 4 17 9 NNW 1028,9 0,0
09.12.2019 19:00:00 16,3 13,9 11 6 22 12 NNW 1029,0 -
09.12.2019 18:00:00 16,9 14,1 13 7 20 11 NW 1028,7 0,0
09.12.2019 17:00:00 17,3 14,2 10 6 20 11 NW 1028,6 0,0
09.12.2019 16:00:00 17,4 14,3 12 6 19 10 NW 1028,7 0,0
09.12.2019 15:00:00 17,0 14,2 11 6 19 11 WNW 1028,9 0,0
09.12.2019 14:00:00 17,3 13,9 8 4 11 6 WNW 1029,5 0,0
09.12.2019 13:00:00 17,1 14,0 4 2 7 4 N 1030,1 -
09.12.2019 12:00:00 15,7 13,1 4 2 9 5 NNW 1031,0 0,0
09.12.2019 11:00:00 14,0 12,5 6 3 9 5 N 1031,0 0,0
09.12.2019 10:00:00 13,4 12,1 2 1 4 2 NNW 1030,5 0,0
09.12.2019 09:00:00 13,1 12,1 3 2 7 4 ENE 1029,8 0,0
09.12.2019 08:00:00 13,2 12,4 4 2 6 3 NNW 1029,3 0,0
09.12.2019 07:00:00 12,6 11,4 3 1 5 3 E 1028,6 -
09.12.2019 06:00:00 12,5 11,6 0 0 6 3 NNW 1028,4 0,0
09.12.2019 05:00:00 12,9 12,1 3 1 5 3 E 1028,3 0,0
09.12.2019 04:00:00 12,9 12,0 1 0 3 2 NE 1028,4 0,0
09.12.2019 03:00:00 13,3 12,2 4 2 6 3 S 1028,3 0,0
09.12.2019 02:00:00 13,5 12,4 4 2 5 3 SSE 1028,4 0,0
09.12.2019 01:00:00 13,5 12,5 1 1 6 3 S 1028,7 -
09.12.2019 00:00:00 13,8 12,6 6 3 7 4 E 1028,6 0,0
08.12.2019 23:00:00 14,0 12,4 0 0 4 2 N 1028,7 0,0
08.12.2019 22:00:00 14,6 12,6 2 1 7 4 ESE 1028,4 0,0
08.12.2019 21:00:00 14,6 12,1 4 2 11 6 WNW 1028,1 0,0
08.12.2019 20:00:00 14,5 12,3 6 4 9 5 NW 1028,2 0,0
08.12.2019 19:00:00 14,4 12,1 7 4 16 9 NW 1027,7 -
08.12.2019 18:00:00 14,4 12,1 10 5 16 9 WNW 1027,2 0,0
08.12.2019 17:00:00 14,5 11,8 11 6 19 10 W 1026,8 0,0
08.12.2019 16:00:00 14,4 11,3 8 4 19 10 W 1026,4 0,0
08.12.2019 15:00:00 14,6 12,3 10 6 16 9 W 1026,7 0,0
08.12.2019 14:00:00 15,8 12,5 8 5 14 7 W 1026,7 0,0
08.12.2019 13:00:00 16,5 12,8 3 2 6 4 S 1027,7 -
08.12.2019 12:00:00 15,1 12,2 4 2 6 4 ESE 1028,1 0,0
08.12.2019 11:00:00 13,0 11,2 3 1 5 3 N 1028,3 0,0
08.12.2019 10:00:00 12,2 10,8 3 2 5 3 ENE 1027,4 0,0
08.12.2019 09:00:00 11,2 10,3 3 1 6 4 ENE 1026,9 0,0
08.12.2019 08:00:00 11,1 10,0 4 2 6 3 E 1026,3 0,0
08.12.2019 07:00:00 11,2 10,3 1 1 4 2 NNE 1026,0 -
08.12.2019 06:00:00 11,5 10,4 1 1 6 3 SSE 1025,5 0,0
08.12.2019 05:00:00 11,9 10,3 4 2 5 3 E 1025,5 0,0
08.12.2019 04:00:00 12,2 11,0 0 0 3 2 N 1025,9 0,0
08.12.2019 03:00:00 12,4 10,4 4 2 10 5 E 1025,9 0,0
08.12.2019 02:00:00 13,2 11,1 2 1 5 3 E 1025,7 0,0
08.12.2019 01:00:00 13,4 10,9 3 2 7 4 N 1026,0 -
08.12.2019 00:00:00 13,1 11,1 3 1 6 3 N 1026,1 0,0
07.12.2019 23:00:00 13,7 11,0 3 2 6 3 ENE 1025,8 0,0
07.12.2019 22:00:00 14,5 12,2 3 1 9 5 N 1025,6 0,0
07.12.2019 21:00:00 14,8 11,8 6 3 16 8 NNE 1025,3 0,0
07.12.2019 20:00:00 15,6 11,6 8 4 13 7 NNW 1024,5 0,0
07.12.2019 19:00:00 16,4 12,1 10 6 18 10 NNW 1024,1 -
07.12.2019 18:00:00 17,6 9,7 15 8 24 13 NW 1023,6 0,0
07.12.2019 17:00:00 18,4 9,4 10 6 16 9 NW 1022,9 0,0
07.12.2019 16:00:00 18,5 10,3 11 6 17 9 NNW 1022,6 0,0
07.12.2019 15:00:00 18,0 11,1 13 7 16 9 NNW 1022,4 0,0
07.12.2019 14:00:00 17,2 10,8 7 4 10 5 NNW 1023,0 0,0
07.12.2019 13:00:00 15,7 10,6 5 3 14 7 NW 1023,8 -
07.12.2019 12:00:00 15,2 10,6 7 4 11 6 N 1024,3 0,0
07.12.2019 11:00:00 13,2 10,0 6 3 16 9 NNE 1024,3 0,0
07.12.2019 10:00:00 12,1 9,2 10 5 16 9 NNE 1023,6 0,0
07.12.2019 09:00:00 12,2 9,4 13 7 16 9 N 1022,8 0,0
07.12.2019 08:00:00 12,0 9,4 6 3 14 8 N 1022,1 0,0
07.12.2019 07:00:00 12,0 9,2 8 4 17 9 NNE 1021,9 -
07.12.2019 06:00:00 12,2 9,2 12 7 18 10 NNE 1021,5 0,0
07.12.2019 05:00:00 12,5 9,7 9 5 16 9 NNE 1021,6 0,0
07.12.2019 04:00:00 12,7 9,9 9 5 15 8 N 1021,4 0,0
07.12.2019 03:00:00 14,3 11,1 10 5 16 9 NNE 1021,3 0,0
07.12.2019 02:00:00 13,8 10,6 11 6 16 9 NNE 1021,4 0,0
07.12.2019 01:00:00 15,0 11,6 11 6 26 14 NE 1021,2 -
07.12.2019 00:00:00 15,3 11,7 18 10 26 14 E 1021,1 0,0
06.12.2019 23:00:00 15,4 11,6 16 9 25 14 E 1020,8 0,0
06.12.2019 22:00:00 15,6 11,6 17 9 31 17 E 1020,4 0,0
06.12.2019 21:00:00 15,7 11,2 22 12 29 16 ESE 1020,1 0,0
06.12.2019 20:00:00 16,2 10,9 17 9 24 13 ESE 1019,8 0,0
06.12.2019 19:00:00 16,5 11,4 11 6 22 12 E 1019,4 -
06.12.2019 18:00:00 17,3 11,6 19 10 30 16 E 1018,8 0,0
06.12.2019 17:00:00 18,4 11,2 24 13 34 18 ESE 1018,5 0,0
06.12.2019 16:00:00 18,6 11,7 24 13 33 18 ESE 1018,1 0,0
06.12.2019 15:00:00 19,2 12,0 22 12 34 18 ESE 1018,1 0,0
06.12.2019 14:00:00 18,9 11,2 22 12 39 21 E 1018,4 0,0
06.12.2019 13:00:00 18,6 11,9 26 14 35 19 E 1019,0 -
06.12.2019 12:00:00 15,3 10,0 6 4 14 8 NNE 1019,7 0,0
06.12.2019 11:00:00 13,2 9,0 12 6 16 9 NNE 1020,0 0,0
06.12.2019 10:00:00 12,3 9,3 10 6 19 10 NNE 1019,3 0,0
06.12.2019 09:00:00 11,9 9,3 13 7 20 11 N 1018,5 0,0
06.12.2019 08:00:00 11,8 10,0 13 7 23 12 NNE 1017,6 0,0
06.12.2019 07:00:00 12,3 8,9 4 2 17 9 NE 1016,9 -
06.12.2019 06:00:00 12,4 9,4 8 4 14 7 NNE 1016,7 0,0
06.12.2019 05:00:00 12,4 9,4 11 6 21 11 N 1016,6 0,0
06.12.2019 04:00:00 12,2 9,0 15 8 21 11 NNE 1016,4 0,0
06.12.2019 03:00:00 13,7 9,3 9 5 18 10 NE 1016,2 0,0
06.12.2019 02:00:00 13,3 9,3 8 5 13 7 NNE 1016,2 0,0
06.12.2019 01:00:00 14,3 9,7 11 6 15 8 NNE 1016,5 -
06.12.2019 00:00:00 14,8 9,2 10 5 19 10 ENE 1016,5 0,0
05.12.2019 23:00:00 14,9 9,4 11 6 17 9 NE 1016,4 0,0
05.12.2019 22:00:00 14,8 8,9 5 3 16 9 ENE 1016,1 0,0
05.12.2019 21:00:00 15,1 9,2 10 5 14 8 E 1015,6 0,0
05.12.2019 20:00:00 15,5 9,2 5 3 12 6 E 1015,2 0,0
05.12.2019 19:00:00 16,1 10,4 4 2 18 10 E 1014,5 -
05.12.2019 18:00:00 16,6 9,3 16 9 22 12 E 1014,1 0,0
05.12.2019 17:00:00 17,9 11,0 15 8 23 13 E 1013,4 0,0
05.12.2019 16:00:00 18,0 10,6 18 10 25 13 ESE 1012,9 0,0
05.12.2019 15:00:00 17,3 9,2 11 6 18 10 NNE 1013,1 0,0
05.12.2019 14:00:00 16,3 9,3 10 6 16 9 NNE 1013,2 0,0
05.12.2019 13:00:00 15,2 8,0 9 5 21 12 NE 1013,8 -
05.12.2019 12:00:00 13,8 7,1 16 8 25 14 NNE 1014,5 0,0
05.12.2019 11:00:00 12,1 5,9 13 7 18 10 NE 1014,5 0,0
05.12.2019 10:00:00 10,4 6,1 11 6 20 11 NNE 1013,8 0,0

tt = temperature
td = dewpoint
ff = wind speed
fx = gusts
dd = wind direction
ppp = reduced air pressure
rr = precipitation

Next stations